Time;durP1;ratioP1;P1;durP2;ratioP2;P2;SDS_P1;SDS_P2;PMS_P1;PMS_P2;Temp;Humidity;BMP_temperature;BMP_pressure;BME280_temperature;BME280_humidity;BME280_pressure;Samples;Min_cycle;Max_cycle;Signal;HPM_P1;HPM_P2
2022/01/23 00:01:33;;;;;;;11.98;6.50;;;;;;;9.10;74.35;103248.38;7389249;19;20417;-67
2022/01/23 00:04:06;;;;;;;10.65;5.55;;;;;;;9.09;73.70;103238.81;7392133;19;20062;-67
2022/01/23 00:06:34;;;;;;;14.95;6.95;;;;;;;9.09;73.93;103246.69;7391783;19;20018;-66
2022/01/23 00:09:02;;;;;;;15.30;7.32;;;;;;;9.07;75.18;103243.31;7392144;19;20010;-69
2022/01/23 00:11:31;;;;;;;11.13;6.70;;;;;;;9.08;74.25;103241.53;7390859;19;20086;-67
2022/01/23 00:19:02;;;;;;;13.02;6.72;;;;;;;9.09;74.42;103240.59;7390270;19;20128;-67
2022/01/23 00:21:31;;;;;;;10.90;6.13;;;;;;;9.10;74.26;103234.38;7386484;19;20011;-67
2022/01/23 00:31:30;;;;;;;15.77;6.93;;;;;;;9.06;74.33;103248.63;7385584;19;20026;-68
2022/01/23 00:33:59;;;;;;;14.63;6.28;;;;;;;9.05;74.45;103252.19;7382290;19;20028;-71
2022/01/23 00:36:28;;;;;;;13.13;6.38;;;;;;;9.07;73.92;103242.44;7389909;19;20022;-68
2022/01/23 00:38:57;;;;;;;12.23;6.43;;;;;;;9.05;73.90;103244.28;7390349;19;20042;-67
2022/01/23 00:41:25;;;;;;;12.57;6.18;;;;;;;9.02;74.29;103238.31;7387014;19;20446;-67
2022/01/23 00:43:54;;;;;;;13.68;5.95;;;;;;;9.01;75.58;103239.22;7393321;19;20019;-67
2022/01/23 00:46:30;;;;;;;11.98;6.55;;;;;;;9.05;75.09;103241.66;7389157;19;20460;-70
2022/01/23 00:49:24;;;;;;;12.88;5.80;;;;;;;9.06;75.62;103235.50;7391562;19;20017;-67
2022/01/23 00:51:48;;;;;;;13.07;6.18;;;;;;;9.05;75.03;103236.41;7388751;19;20326;-67
2022/01/23 00:54:15;;;;;;;13.90;6.30;;;;;;;9.06;74.59;103233.72;7388907;19;20051;-68
2022/01/23 00:56:42;;;;;;;11.35;6.10;;;;;;;9.07;74.00;103232.78;7389672;19;20031;-69
2022/01/23 00:59:10;;;;;;;11.18;5.38;;;;;;;9.06;73.67;103227.63;7393135;19;20468;-67
2022/01/23 01:01:38;;;;;;;14.73;7.40;;;;;;;9.05;74.03;103218.88;7386317;19;20018;-67
2022/01/23 01:04:06;;;;;;;14.07;7.03;;;;;;;9.05;76.75;103224.13;7381836;19;20039;-67
2022/01/23 01:06:34;;;;;;;12.70;5.65;;;;;;;9.02;75.58;103217.28;7391723;19;20015;-66
2022/01/23 01:09:05;;;;;;;12.07;5.63;;;;;;;9.02;74.82;103217.28;7392913;19;20015;-67
2022/01/23 01:11:57;;;;;;;12.50;5.57;;;;;;;9.02;74.55;103221.69;7386153;19;20025;-67
2022/01/23 01:32:28;;;;;;;10.93;5.30;;;;;;;8.92;74.31;103210.84;7385751;19;20014;-68
2022/01/23 01:35:05;;;;;;;12.65;6.30;;;;;;;8.93;74.35;103216.94;7385178;19;20007;-67
2022/01/23 01:37:35;;;;;;;15.85;6.82;;;;;;;8.90;74.73;103204.81;7387807;19;20022;-68
2022/01/23 01:40:02;;;;;;;14.27;6.97;;;;;;;8.91;74.96;103201.28;7390569;19;20468;-67
2022/01/23 01:42:30;;;;;;;13.48;6.65;;;;;;;8.91;74.87;103198.66;7395651;19;20018;-67
2022/01/23 01:44:58;;;;;;;13.52;5.45;;;;;;;8.93;74.72;103195.94;7397966;19;20472;-68
2022/01/23 01:47:26;;;;;;;12.40;6.63;;;;;;;8.94;74.70;103197.63;7393451;19;20732;-68
2022/01/23 01:49:54;;;;;;;12.90;6.47;;;;;;;8.96;75.10;103199.25;7391493;19;20021;-69
2022/01/23 01:52:23;;;;;;;13.25;6.10;;;;;;;8.96;74.70;103195.75;7393324;19;20007;-67
2022/01/23 01:55:02;;;;;;;11.02;5.72;;;;;;;8.95;74.88;103194.06;7391684;19;20456;-67
2022/01/23 01:57:38;;;;;;;11.90;5.97;;;;;;;8.95;74.89;103187.03;7390306;19;20014;-67
2022/01/23 02:10:26;;;;;;;11.38;5.50;;;;;;;8.98;73.50;103186.03;7393259;19;20014;-66
2022/01/23 02:13:07;;;;;;;9.57;4.85;;;;;;;8.95;73.98;103178.31;7392746;19;20002;-67
2022/01/23 02:16:28;;;;;;;10.45;5.82;;;;;;;8.91;73.94;103175.00;7392574;19;20017;-67
2022/01/23 02:56:48;;;;;;;10.02;5.30;;;;;;;8.94;74.52;103168.72;7393431;19;20011;-67
2022/01/23 03:02:02;;;;;;;10.25;5.47;;;;;;;8.93;74.39;103169.69;7388812;19;20263;-66
2022/01/23 03:04:33;;;;;;;12.32;5.57;;;;;;;8.91;74.15;103168.91;7390529;19;20019;-68
2022/01/23 03:12:16;;;;;;;13.73;7.45;;;;;;;8.92;74.79;103165.38;7392101;19;20038;-66
2022/01/23 03:14:53;;;;;;;11.43;5.97;;;;;;;8.91;75.44;103158.41;7388913;19;20003;-67
2022/01/23 03:30:21;;;;;;;11.80;5.97;;;;;;;8.94;74.35;103161.72;7390557;19;20006;-66
2022/01/23 03:32:51;;;;;;;14.38;6.97;;;;;;;8.95;74.38;103167.81;7390590;19;20063;-66
2022/01/23 03:35:21;;;;;;;13.93;6.55;;;;;;;8.97;74.77;103160.72;7389969;19;20011;-68
2022/01/23 03:37:50;;;;;;;20.27;9.27;;;;;;;8.96;74.74;103151.13;7391675;19;20581;-67
2022/01/23 03:40:19;;;;;;;14.52;7.43;;;;;;;8.92;74.94;103153.09;7384897;19;20042;-68
2022/01/23 03:42:49;;;;;;;13.00;6.53;;;;;;;8.89;74.54;103142.75;7390718;19;20018;-66
2022/01/23 03:50:27;;;;;;;12.80;6.47;;;;;;;8.85;74.36;103146.47;7389932;19;20018;-66
2022/01/23 03:52:56;;;;;;;11.43;6.20;;;;;;;8.83;74.41;103145.72;7390306;19;20074;-65
2022/01/23 03:55:26;;;;;;;15.13;7.50;;;;;;;8.86;74.47;103149.94;7389971;19;20503;-66
2022/01/23 03:57:59;;;;;;;13.07;6.68;;;;;;;8.86;74.49;103150.78;7389322;19;20524;-67
2022/01/23 04:00:30;;;;;;;13.20;7.03;;;;;;;8.90;74.44;103146.22;7391389;19;20467;-67
2022/01/23 04:02:58;;;;;;;14.23;7.15;;;;;;;8.90;73.95;103144.44;7385183;19;20475;-68
2022/01/23 04:05:26;;;;;;;15.07;6.97;;;;;;;8.90;74.01;103146.22;7392674;19;20023;-66
2022/01/23 04:07:54;;;;;;;14.18;6.88;;;;;;;8.90;74.80;103138.34;7388939;19;20009;-66
2022/01/23 04:10:26;;;;;;;13.70;6.47;;;;;;;8.87;74.41;103142.00;7384164;19;20014;-67
2022/01/23 04:12:58;;;;;;;12.20;6.30;;;;;;;8.78;74.31;103142.50;7390678;19;20030;-67
2022/01/23 04:45:44;;;;;;;14.90;7.85;;;;;;;8.88;74.23;103146.31;7391371;19;20026;-66
2022/01/23 05:01:05;;;;;;;17.45;8.40;;;;;;;8.81;74.89;103121.31;7387590;19;20023;-66
2022/01/23 05:06:05;;;;;;;14.75;7.65;;;;;;;8.84;74.77;103133.41;7390064;19;20475;-67
2022/01/23 05:08:35;;;;;;;14.50;7.95;;;;;;;8.83;74.42;103127.34;7390525;19;20007;-66
2022/01/23 05:11:07;;;;;;;14.93;7.78;;;;;;;8.83;74.40;103114.22;7389534;19;20042;-65
2022/01/23 05:13:34;;;;;;;17.13;8.27;;;;;;;8.81;74.69;103123.94;7388587;19;20015;-67
2022/01/23 05:16:02;;;;;;;13.85;7.80;;;;;;;8.82;74.47;103123.03;7395244;19;20536;-67
2022/01/23 05:18:32;;;;;;;14.73;8.00;;;;;;;8.82;74.54;103122.19;7399290;19;20014;-68
2022/01/23 05:21:14;;;;;;;17.35;8.30;;;;;;;8.83;74.47;103118.63;7394968;19;20037;-65
2022/01/23 05:23:44;;;;;;;14.23;7.57;;;;;;;8.82;74.56;103119.56;7394518;19;20029;-66
2022/01/23 05:26:12;;;;;;;13.27;7.28;;;;;;;8.84;74.53;103122.91;7393787;19;20539;-66
2022/01/23 05:28:39;;;;;;;15.20;7.68;;;;;;;8.84;74.26;103120.28;7393744;19;20007;-68
2022/01/23 05:31:06;;;;;;;17.38;8.20;;;;;;;8.85;74.39;103122.00;7397912;19;20038;-65
2022/01/23 05:33:34;;;;;;;16.52;8.45;;;;;;;8.84;74.35;103117.66;7394454;19;20026;-67
2022/01/23 05:36:02;;;;;;;14.25;7.53;;;;;;;8.87;73.38;103115.75;7398764;19;20014;-68
2022/01/23 05:38:30;;;;;;;14.30;7.32;;;;;;;8.86;73.32;103121.06;7393120;19;20049;-65
2022/01/23 05:40:59;;;;;;;13.75;7.07;;;;;;;8.82;73.40;103117.78;7394470;19;20021;-67
2022/01/23 05:43:27;;;;;;;14.32;7.70;;;;;;;8.79;73.24;103106.56;7393319;19;20377;-67
2022/01/23 05:45:55;;;;;;;13.73;7.28;;;;;;;8.79;73.51;103103.94;7389882;19;20022;-66
2022/01/23 05:48:22;;;;;;;14.63;7.93;;;;;;;8.78;73.17;103111.00;7392559;19;20610;-67
2022/01/23 05:50:50;;;;;;;14.23;7.53;;;;;;;8.79;73.60;103112.69;7392156;19;20036;-66
2022/01/23 05:53:18;;;;;;;15.10;8.52;;;;;;;8.80;73.53;103106.50;7390891;19;20038;-65
2022/01/23 05:55:46;;;;;;;15.75;8.02;;;;;;;8.78;73.62;103113.63;7395229;19;20002;-68
2022/01/23 05:58:13;;;;;;;14.82;7.80;;;;;;;8.75;73.61;103111.16;7398067;19;20010;-67
2022/01/23 06:00:40;;;;;;;14.30;7.63;;;;;;;8.76;74.09;103122.50;7393519;19;20014;-67
2022/01/23 06:03:08;;;;;;;15.55;7.85;;;;;;;8.74;74.05;103114.72;7393762;19;20015;-67
2022/01/23 06:05:35;;;;;;;18.42;9.15;;;;;;;8.75;75.58;103111.16;7396801;19;20046;-67
2022/01/23 06:08:03;;;;;;;17.58;8.90;;;;;;;8.77;74.39;103116.34;7391950;19;20018;-67
2022/01/23 06:10:46;;;;;;;14.65;8.52;;;;;;;8.77;74.02;103106.69;7390908;19;20017;-67
2022/01/23 06:13:13;;;;;;;16.15;7.82;;;;;;;8.76;73.90;103112.84;7392120;19;20010;-66
2022/01/23 06:15:41;;;;;;;16.27;8.38;;;;;;;8.76;74.08;103109.38;7388964;19;20051;-66
2022/01/23 06:18:09;;;;;;;14.60;7.93;;;;;;;8.76;73.91;103109.38;7398048;19;20014;-66
2022/01/23 06:20:36;;;;;;;16.95;8.52;;;;;;;8.77;73.73;103109.31;7394591;19;20014;-66
2022/01/23 06:23:04;;;;;;;15.70;8.27;;;;;;;8.75;73.64;103111.16;7394691;19;20130;-66
2022/01/23 06:25:34;;;;;;;17.10;8.48;;;;;;;8.75;73.77;103110.31;7391471;19;20018;-66
2022/01/23 06:28:05;;;;;;;16.73;8.30;;;;;;;8.74;74.04;103112.09;7390704;19;20520;-68
2022/01/23 06:30:34;;;;;;;16.70;9.07;;;;;;;8.73;73.97;103115.66;7393477;19;20022;-66
2022/01/23 06:33:05;;;;;;;16.90;8.63;;;;;;;8.72;74.20;103113.97;7396402;19;20025;-67
2022/01/23 06:35:35;;;;;;;17.07;9.33;;;;;;;8.73;74.33;103115.66;7395602;19;20041;-65
2022/01/23 06:38:03;;;;;;;15.98;8.48;;;;;;;8.75;74.42;103131.31;7392301;19;20712;-66
2022/01/23 06:40:31;;;;;;;18.58;9.13;;;;;;;8.78;74.06;103125.91;7391022;19;20092;-67
2022/01/23 06:42:58;;;;;;;19.73;8.95;;;;;;;8.77;73.49;103122.44;7395355;19;20015;-66
2022/01/23 06:45:25;;;;;;;15.95;8.05;;;;;;;8.80;73.77;103116.16;7394027;19;20346;-67
2022/01/23 06:47:54;;;;;;;17.33;8.75;;;;;;;8.79;73.97;103123.19;7385680;19;20472;-67
2022/01/23 06:50:21;;;;;;;14.13;7.75;;;;;;;8.80;73.93;103121.41;7397340;19;20758;-67
2022/01/23 06:52:49;;;;;;;16.58;9.43;;;;;;;8.82;74.07;103122.19;7390310;19;20082;-67
2022/01/23 06:55:17;;;;;;;20.92;9.63;;;;;;;8.84;74.35;103122.91;7391259;19;20018;-66
2022/01/23 06:57:46;;;;;;;25.52;10.40;;;;;;;8.86;74.78;103121.91;7392941;19;20019;-66
2022/01/23 07:00:16;;;;;;;19.95;10.10;;;;;;;8.89;75.80;103127.00;7391473;19;20564;-66
2022/01/23 07:02:43;;;;;;;17.73;8.38;;;;;;;8.88;74.78;103127.09;7396502;19;20074;-65
2022/01/23 07:05:11;;;;;;;16.13;8.57;;;;;;;8.86;74.61;103124.53;7392928;19;20023;-67
2022/01/23 07:07:38;;;;;;;19.30;9.05;;;;;;;8.86;73.64;103126.31;7391456;19;20038;-68
2022/01/23 07:10:06;;;;;;;14.80;7.95;;;;;;;8.89;74.58;103126.13;7391224;19;20018;-66
2022/01/23 07:12:34;;;;;;;16.83;8.65;;;;;;;8.89;73.74;103123.50;7391089;19;20006;-67
2022/01/23 07:15:02;;;;;;;16.00;8.20;;;;;;;8.88;73.21;103124.47;7389031;19;20524;-66
2022/01/23 07:17:29;;;;;;;17.27;9.00;;;;;;;8.88;73.62;103127.09;7392232;19;20014;-67
2022/01/23 07:19:57;;;;;;;16.02;8.18;;;;;;;8.90;73.44;103133.09;7391510;19;20018;-65
2022/01/23 07:22:24;;;;;;;14.77;7.93;;;;;;;8.88;73.10;103130.56;7391335;19;20331;-67
2022/01/23 07:24:52;;;;;;;16.77;8.75;;;;;;;8.86;73.63;103127.16;7390354;19;20014;-66
2022/01/23 07:27:22;;;;;;;15.38;8.05;;;;;;;8.86;73.40;103131.56;7389152;19;20020;-67
2022/01/23 07:29:54;;;;;;;16.98;9.05;;;;;;;8.84;73.35;103131.66;7390569;19;20305;-67
2022/01/23 07:32:24;;;;;;;18.77;9.23;;;;;;;8.88;73.75;103137.59;7391916;19;20082;-66
2022/01/23 07:34:53;;;;;;;14.40;8.00;;;;;;;8.88;73.19;103138.44;7392762;19;20019;-66
2022/01/23 07:37:21;;;;;;;16.17;8.18;;;;;;;8.91;73.24;103147.91;7388172;19;20015;-65
2022/01/23 07:39:48;;;;;;;14.95;8.20;;;;;;;8.88;73.23;103141.06;7385922;19;20404;-66
2022/01/23 07:42:16;;;;;;;15.85;8.30;;;;;;;8.88;73.29;103146.31;7391000;19;20011;-67
2022/01/23 07:44:43;;;;;;;17.20;8.40;;;;;;;8.88;73.32;103151.56;7388900;19;20018;-67
2022/01/23 07:47:12;;;;;;;16.25;8.55;;;;;;;8.90;73.95;103154.09;7389607;19;20021;-67
2022/01/23 07:49:46;;;;;;;16.30;8.13;;;;;;;8.94;73.97;103153.84;7385796;19;20006;-68
2022/01/23 07:52:13;;;;;;;17.30;8.45;;;;;;;8.93;72.96;103160.03;7392807;19;20030;-67
2022/01/23 07:54:40;;;;;;;15.27;8.27;;;;;;;8.92;72.78;103163.59;7391324;19;20018;-68
2022/01/23 07:57:08;;;;;;;14.10;8.13;;;;;;;8.93;72.76;103161.81;7389207;19;20019;-67
2022/01/23 07:59:35;;;;;;;16.45;8.80;;;;;;;8.95;72.98;103155.53;7390653;19;20022;-67
2022/01/23 08:02:03;;;;;;;22.52;11.07;;;;;;;8.98;74.19;103163.25;7387558;19;20027;-67
2022/01/23 08:04:31;;;;;;;17.55;8.93;;;;;;;8.98;74.18;103172.91;7388954;19;20017;-66
2022/01/23 08:09:29;;;;;;;15.60;7.90;;;;;;;9.03;72.23;103160.38;7390962;19;20022;-67
2022/01/23 08:11:56;;;;;;;16.17;8.32;;;;;;;9.01;72.42;103168.34;7387340;19;20062;-67
2022/01/23 08:14:25;;;;;;;17.98;9.50;;;;;;;8.96;72.64;103166.88;7388766;19;20348;-68
2022/01/23 08:16:53;;;;;;;20.00;10.23;;;;;;;8.88;73.13;103166.47;7387284;19;20579;-68
2022/01/23 08:19:20;;;;;;;25.33;12.35;;;;;;;8.91;74.12;103172.41;7390385;19;20488;-69
2022/01/23 08:21:48;;;;;;;19.13;9.43;;;;;;;8.94;75.75;103168.72;7385466;19;20021;-67
2022/01/23 08:24:15;;;;;;;19.73;10.15;;;;;;;8.95;74.28;103167.81;7389593;19;20018;-67
2022/01/23 08:26:43;;;;;;;17.60;8.52;;;;;;;8.96;73.72;103180.00;7386590;19;20006;-66
2022/01/23 08:29:10;;;;;;;18.83;9.85;;;;;;;8.95;74.55;103171.28;7386664;19;20010;-67
2022/01/23 08:31:37;;;;;;;17.27;9.02;;;;;;;8.97;74.22;103181.72;7388241;19;20026;-67
2022/01/23 08:34:05;;;;;;;17.05;8.52;;;;;;;8.97;73.42;103177.31;7386656;19;20034;-67
2022/01/23 08:36:39;;;;;;;17.58;8.70;;;;;;;8.97;73.35;103179.09;7391727;19;20014;-67
2022/01/23 08:39:12;;;;;;;17.38;8.82;;;;;;;8.95;73.21;103173.91;7389651;19;20014;-67
2022/01/23 08:44:10;;;;;;;18.25;8.63;;;;;;;8.98;73.03;103171.13;7387938;19;20034;-66
2022/01/23 08:46:38;;;;;;;22.83;9.85;;;;;;;9.00;73.35;103171.88;7387896;19;20014;-67
2022/01/23 08:49:05;;;;;;;17.35;8.48;;;;;;;9.00;73.23;103181.53;7384978;19;20007;-68
2022/01/23 08:51:33;;;;;;;19.25;10.77;;;;;;;9.00;74.40;103178.91;7380692;19;19998;-66
2022/01/23 08:54:02;;;;;;;17.10;9.00;;;;;;;8.97;74.49;103176.47;7390047;19;20023;-67
2022/01/23 08:56:31;;;;;;;17.98;9.98;;;;;;;8.95;74.36;103181.78;7389873;19;20010;-66
2022/01/23 08:58:58;;;;;;;16.83;8.68;;;;;;;8.98;73.89;103176.38;7389881;19;20062;-66
2022/01/23 09:01:27;;;;;;;17.45;8.52;;;;;;;8.98;73.15;103178.16;7388106;19;20085;-67
2022/01/23 09:03:55;;;;;;;20.75;9.90;;;;;;;9.01;73.60;103181.47;7385379;19;20087;-71
2022/01/23 09:06:30;;;;;;;19.08;9.90;;;;;;;9.05;74.05;103187.38;7389882;19;20038;-67
2022/01/23 09:09:11;;;;;;;23.30;11.07;;;;;;;9.07;76.07;103182.91;7391321;19;20021;-67
2022/01/23 09:11:41;;;;;;;22.55;11.73;;;;;;;9.06;75.08;103180.34;7390408;19;20019;-66
2022/01/23 09:14:10;;;;;;;22.30;11.43;;;;;;;9.07;74.99;103176.81;7384606;19;20142;-66
2022/01/23 09:16:41;;;;;;;47.30;21.55;;;;;;;9.09;76.43;103173.19;7385399;19;20026;-65
2022/01/23 09:19:09;;;;;;;33.75;13.32;;;;;;;9.09;75.58;103177.56;7385503;19;20460;-66
2022/01/23 09:21:39;;;;;;;30.88;14.32;;;;;;;9.09;76.15;103175.81;7386432;19;20011;-67
2022/01/23 09:24:07;;;;;;;22.30;11.82;;;;;;;9.13;77.13;103171.22;7380976;19;20023;-67
2022/01/23 09:26:36;;;;;;;25.15;11.43;;;;;;;9.11;75.72;103163.41;7386747;19;20014;-67
2022/01/23 09:31:48;;;;;;;28.65;14.02;;;;;;;9.15;78.66;103158.81;7385327;19;20011;-67
2022/01/23 09:34:19;;;;;;;27.85;12.68;;;;;;;9.13;77.88;103156.31;7385812;19;20076;-68
2022/01/23 09:36:47;;;;;;;24.13;12.00;;;;;;;9.14;77.76;103149.28;7385754;19;20046;-67
2022/01/23 09:39:16;;;;;;;25.25;12.55;;;;;;;9.13;77.77;103145.81;7385393;19;20014;-67
2022/01/23 09:42:06;;;;;;;23.50;10.90;;;;;;;9.10;77.03;103140.72;7387580;19;20015;-67
2022/01/23 09:44:46;;;;;;;24.48;11.15;;;;;;;9.09;75.99;103151.31;7384083;19;20309;-67
2022/01/23 09:47:16;;;;;;;27.15;11.85;;;;;;;9.02;75.20;103146.41;7388034;19;20018;-67
2022/01/23 09:49:44;;;;;;;30.33;15.25;;;;;;;9.02;76.51;103154.28;7384710;19;20011;-67
2022/01/23 09:52:13;;;;;;;26.98;13.32;;;;;;;9.07;78.23;103156.66;7386838;19;20011;-69
2022/01/23 09:54:44;;;;;;;21.10;10.27;;;;;;;9.01;76.09;103149.94;7378432;19;20019;-65
2022/01/23 09:57:13;;;;;;;24.13;11.35;;;;;;;9.06;77.56;103139.19;7388512;19;20030;-67
2022/01/23 09:59:40;;;;;;;25.55;11.05;;;;;;;9.12;77.97;103151.13;7391282;19;20050;-66
2022/01/23 10:02:08;;;;;;;28.05;11.45;;;;;;;9.23;82.24;103152.22;7393148;19;20022;-68
2022/01/23 10:04:35;;;;;;;31.73;17.83;;;;;;;9.29;82.76;103151.91;7391881;19;20014;-67
2022/01/23 10:07:05;;;;;;;30.95;14.63;;;;;;;9.29;81.13;103154.53;7392021;19;20018;-68
2022/01/23 10:09:33;;;;;;;25.50;11.82;;;;;;;9.25;78.02;103155.59;7395226;19;21165;-67
2022/01/23 10:12:02;;;;;;;27.67;14.05;;;;;;;9.25;76.75;103149.50;7394993;19;20010;-67
2022/01/23 10:14:31;;;;;;;27.90;13.43;;;;;;;9.27;78.01;103159.00;7396171;19;20031;-67
2022/01/23 10:17:00;;;;;;;27.63;12.27;;;;;;;9.24;76.87;103155.72;7392439;19;20015;-68
2022/01/23 10:19:28;;;;;;;26.27;11.15;;;;;;;9.21;75.66;103156.72;7391830;19;20325;-66
2022/01/23 10:21:56;;;;;;;23.15;11.00;;;;;;;9.19;75.94;103158.59;7392444;19;20018;-66
2022/01/23 10:24:23;;;;;;;22.45;10.88;;;;;;;9.13;75.50;103156.31;7392334;19;20023;-67
2022/01/23 10:26:54;;;;;;;22.23;10.82;;;;;;;9.14;74.54;103155.38;7387665;19;20010;-67
2022/01/23 10:29:26;;;;;;;22.05;11.43;;;;;;;9.12;73.97;103153.75;7392239;19;20042;-69
2022/01/23 10:32:00;;;;;;;29.55;13.45;;;;;;;9.14;74.24;103154.53;7391328;19;20019;-68
2022/01/23 10:34:40;;;;;;;24.45;12.82;;;;;;;9.19;75.94;103155.13;7393022;19;20460;-66
2022/01/23 10:37:08;;;;;;;28.60;13.55;;;;;;;9.21;76.68;103151.47;7392024;19;20015;-68
2022/01/23 10:39:40;;;;;;;27.17;13.05;;;;;;;9.22;75.87;103152.31;7388671;19;20037;-65
2022/01/23 10:42:23;;;;;;;25.83;12.13;;;;;;;9.17;75.00;103162.22;7394379;19;20014;-66
2022/01/23 10:50:01;;;;;;;26.13;11.82;;;;;;;9.24;74.85;103156.56;7388773;19;20014;-67
2022/01/23 10:52:47;;;;;;;24.13;10.70;;;;;;;9.31;75.46;103162.28;7393613;19;20247;-69
2022/01/23 10:55:18;;;;;;;26.23;13.18;;;;;;;9.32;74.62;103156.97;7394553;19;20655;-66
2022/01/23 10:57:54;;;;;;;30.80;13.43;;;;;;;9.37;76.53;103157.56;7388788;19;20026;-67
2022/01/23 11:00:25;;;;;;;25.00;10.88;;;;;;;9.33;73.87;103160.44;7392339;19;20015;-68
2022/01/23 11:02:53;;;;;;;25.88;11.00;;;;;;;9.28;73.65;103159.84;7396844;19;20495;-69
2022/01/23 11:05:34;;;;;;;26.63;12.48;;;;;;;9.31;75.26;103157.03;7391678;19;20487;-67
2022/01/23 11:08:02;;;;;;;31.38;15.18;;;;;;;9.34;75.35;103157.72;7394797;19;20010;-68
2022/01/23 11:10:32;;;;;;;28.88;11.98;;;;;;;9.37;75.40;103151.44;7392197;19;20011;-67
2022/01/23 11:18:36;;;;;;;23.55;11.18;;;;;;;9.40;73.95;103141.59;7394549;19;20136;-67
2022/01/23 11:21:17;;;;;;;27.05;13.85;;;;;;;9.43;75.26;103130.09;7393510;19;20014;-68
2022/01/23 11:24:04;;;;;;;30.75;14.18;;;;;;;9.41;74.41;103130.16;7395417;19;20025;-67
2022/01/23 11:26:44;;;;;;;31.00;15.27;;;;;;;9.38;74.82;103134.75;7396302;19;20036;-67
2022/01/23 11:29:17;;;;;;;26.98;11.88;;;;;;;9.38;75.42;103126.88;7388167;19;20098;-67
2022/01/23 11:31:44;;;;;;;28.40;14.82;;;;;;;9.42;77.10;103126.59;7390297;19;20457;-67
2022/01/23 11:34:13;;;;;;;25.13;11.77;;;;;;;9.40;74.52;103128.47;7392873;19;20010;-68
2022/01/23 11:36:46;;;;;;;33.22;14.27;;;;;;;9.40;74.16;103128.47;7394246;19;20417;-67
2022/01/23 11:39:21;;;;;;;28.40;13.45;;;;;;;9.44;74.73;103121.28;7392476;19;20015;-67
2022/01/23 11:56:29;;;;;;;26.73;12.52;;;;;;;9.37;72.09;103112.03;7394406;19;20018;-67
2022/01/23 11:59:31;;;;;;;27.85;13.35;;;;;;;9.39;74.47;103111.03;7387695;19;20032;-68
2022/01/23 12:02:15;;;;;;;28.25;13.40;;;;;;;9.42;73.24;103115.25;7390342;19;20014;-67
2022/01/23 12:05:02;;;;;;;28.80;13.32;;;;;;;9.38;71.99;103106.69;7391291;19;20018;-68
2022/01/23 12:07:30;;;;;;;24.88;12.77;;;;;;;9.37;72.07;103107.63;7392828;19;20489;-68
2022/01/23 12:10:30;;;;;;;30.63;14.52;;;;;;;9.40;73.08;103104.81;7390872;19;20082;-67
2022/01/23 12:16:20;;;;;;;24.88;12.23;;;;;;;9.45;73.18;103108.03;7389154;19;20027;-67
2022/01/23 12:19:28;;;;;;;21.73;10.55;;;;;;;9.37;70.37;103097.13;7390412;19;20038;-66
2022/01/23 12:21:59;;;;;;;32.45;14.35;;;;;;;9.39;72.57;103100.53;7393420;19;20031;-65
2022/01/23 12:24:26;;;;;;;25.38;12.50;;;;;;;9.40;72.07;103099.56;7388615;19;20031;-67
2022/01/23 12:27:21;;;;;;;26.50;11.77;;;;;;;9.41;71.93;103089.91;7392944;19;20471;-68
2022/01/23 12:30:10;;;;;;;23.67;11.07;;;;;;;9.39;70.59;103097.88;7385604;19;20412;-67
2022/01/23 12:32:37;;;;;;;23.15;10.82;;;;;;;9.39;70.37;103089.16;7394013;19;20002;-68
2022/01/23 12:35:07;;;;;;;26.52;12.63;;;;;;;9.42;70.73;103088.97;7390039;19;20451;-66
2022/01/23 12:37:56;;;;;;;25.95;12.07;;;;;;;9.44;71.49;103090.59;7390430;19;20041;-68
2022/01/23 12:40:32;;;;;;;23.02;11.93;;;;;;;9.42;71.91;103089.81;7386648;19;20015;-66
2022/01/23 12:43:15;;;;;;;23.30;11.98;;;;;;;9.48;74.98;103088.63;7391440;19;20010;-68
2022/01/23 12:45:55;;;;;;;19.08;9.00;;;;;;;9.66;80.89;103089.31;7389679;19;20010;-67
2022/01/23 12:48:32;;;;;;;25.65;11.90;;;;;;;9.92;79.85;103090.38;7393436;19;20580;-66
2022/01/23 12:51:01;;;;;;;26.73;12.45;;;;;;;10.02;75.89;103083.63;7388402;19;20011;-68
2022/01/23 12:53:47;;;;;;;24.08;10.65;;;;;;;9.99;69.23;103079.41;7390052;19;20460;-67
2022/01/23 12:56:45;;;;;;;24.70;12.68;;;;;;;9.94;67.46;103068.31;7393338;19;20010;-67
2022/01/23 12:59:30;;;;;;;23.98;11.35;;;;;;;9.85;68.89;103074.16;7393657;19;20477;-67
2022/01/23 13:02:01;;;;;;;23.77;11.18;;;;;;;9.75;67.97;103068.56;7385335;19;20007;-68
2022/01/23 13:04:42;;;;;;;26.60;11.18;;;;;;;9.67;68.21;103062.09;7388798;19;20134;-67
2022/01/23 13:07:21;;;;;;;24.13;11.32;;;;;;;9.63;68.33;103044.81;7392209;19;20504;-68
2022/01/23 13:09:54;;;;;;;29.45;12.18;;;;;;;9.61;70.42;103058.03;7391167;19;20011;-67
2022/01/23 13:32:19;;;;;;;23.52;11.30;;;;;;;9.49;68.79;103029.88;7383488;19;20002;-67
2022/01/23 13:34:52;;;;;;;23.60;11.98;;;;;;;9.45;68.97;103028.34;7394487;19;20073;-69
2022/01/23 13:37:23;;;;;;;25.70;11.30;;;;;;;9.39;68.27;103026.97;7397210;19;20010;-68
2022/01/23 13:39:59;;;;;;;31.73;13.77;;;;;;;9.36;69.21;103021.00;7397245;19;20709;-68
2022/01/23 13:54:17;;;;;;;24.60;12.20;;;;;;;9.37;70.60;103013.06;7396411;19;20010;-66
2022/01/23 14:02:46;;;;;;;24.42;11.07;;;;;;;9.35;70.68;103006.19;7391060;19;20007;-66
2022/01/23 14:05:21;;;;;;;24.10;11.50;;;;;;;9.35;70.11;103006.19;7393507;19;20027;-66
2022/01/23 14:08:01;;;;;;;30.90;12.75;;;;;;;9.41;75.36;102996.16;7392659;19;20002;-67
2022/01/23 14:10:31;;;;;;;26.95;12.45;;;;;;;9.43;73.39;102990.81;7392971;19;20090;-67
2022/01/23 14:13:14;;;;;;;28.38;13.25;;;;;;;9.35;70.20;102991.28;7387780;19;20034;-66
2022/01/23 14:15:43;;;;;;;;;;;;;;;9.40;70.90;102985.75;7387607;19;20042;-66
2022/01/23 14:18:13;;;;;;;25.65;12.55;;;;;;;9.36;70.24;102992.97;7391761;19;19915;-66
2022/01/23 14:20:43;;;;;;;24.85;11.60;;;;;;;9.34;70.19;102984.34;7390246;19;19998;-66
2022/01/23 14:23:13;;;;;;;25.38;12.65;;;;;;;9.35;69.96;102991.28;7392569;19;20022;-67
2022/01/23 14:25:47;;;;;;;28.40;13.32;;;;;;;9.36;69.84;102984.25;7392059;19;20034;-67
2022/01/23 14:28:20;;;;;;;23.15;11.77;;;;;;;9.40;70.06;102988.38;7392679;19;20019;-66
2022/01/23 14:30:54;;;;;;;23.38;12.00;;;;;;;9.44;70.29;102977.59;7390456;19;20010;-67
2022/01/23 14:33:28;;;;;;;27.08;11.77;;;;;;;9.44;69.50;102971.50;7388902;19;20504;-67
2022/01/23 14:36:15;;;;;;;25.20;12.50;;;;;;;9.44;69.86;102979.38;7389550;19;20571;-66
2022/01/23 14:38:56;;;;;;;24.48;11.52;;;;;;;9.41;68.89;102979.56;7390460;19;20014;-67
2022/01/23 14:41:30;;;;;;;25.65;11.93;;;;;;;9.40;69.43;102980.47;7384912;19;20019;-66
2022/01/23 14:43:57;;;;;;;22.85;10.93;;;;;;;9.37;67.86;102981.53;7393896;19;20026;-65
2022/01/23 14:46:26;;;;;;;19.27;10.40;;;;;;;9.38;67.90;102980.59;7385669;19;20538;-67
2022/01/23 14:48:59;;;;;;;23.33;10.82;;;;;;;9.39;67.20;102982.28;7392012;19;20070;-67
2022/01/23 14:51:29;;;;;;;;;;;;;;;9.37;66.93;102981.53;7390875;19;20094;-66
2022/01/23 14:53:56;;;;;;;23.30;10.43;;;;;;;9.32;67.28;102975.69;7389084;19;19926;-67
2022/01/23 14:56:25;;;;;;;25.02;10.93;;;;;;;9.30;68.39;102964.44;7392977;19;20007;-66
2022/01/23 14:58:54;;;;;;;25.73;11.57;;;;;;;9.30;68.24;102971.47;7391796;19;20512;-66
2022/01/23 15:01:21;;;;;;;27.67;12.27;;;;;;;9.31;68.72;102971.38;7393448;19;20482;-67
2022/01/23 15:03:52;;;;;;;22.60;11.77;;;;;;;9.30;68.44;102964.44;7389379;19;20006;-66
2022/01/23 15:06:29;;;;;;;22.98;11.32;;;;;;;9.30;69.57;102971.47;7390382;19;20022;-66
2022/01/23 15:09:04;;;;;;;23.75;11.43;;;;;;;9.28;68.92;102961.06;7390113;19;20098;-66
2022/01/23 15:11:31;;;;;;;25.08;11.38;;;;;;;9.28;69.01;102966.31;7393834;19;20329;-67
2022/01/23 15:13:58;;;;;;;24.48;12.23;;;;;;;9.31;71.68;102967.91;7389450;19;20035;-65
2022/01/23 15:16:27;;;;;;;23.35;11.98;;;;;;;9.30;70.51;102967.06;7392124;19;20015;-66
2022/01/23 15:18:54;;;;;;;32.28;16.52;;;;;;;9.31;71.18;102962.66;7393339;19;20019;-66
2022/01/23 15:21:21;;;;;;;28.52;13.20;;;;;;;9.31;72.38;102955.63;7389143;19;20014;-66
2022/01/23 15:23:54;;;;;;;25.02;11.95;;;;;;;9.28;69.77;102966.31;7388771;19;20043;-66
2022/01/23 15:26:24;;;;;;;26.48;11.05;;;;;;;9.28;68.56;102957.59;7387115;19;20078;-66